Portada
METAR-TAF:

METAR-TAF

Aeroports :

Kunming, Xina

latitud: 25-01N, longitud: 102-41E, altitud: 1892 m

Observació

L'informe es va fer fa 56 minuts, a les 00:00 UTC
Vent 10 kt del Sud/Sud-Oest
Temperatura 12°C
Humitat 94%
Pressió 1026 hPa
Visibilitat 10 km o més
sense núvols per sota de 1500 mi sense presència de cumulonimbus.

METAR: ZPPP 200000Z 21005MPS CAVOK 12/11 Q1026 NOSIG

Hora: 08:56 (00:56 UTC)

Pronòstic

L'informe es va fer fa 5 hores i 41 minuts, a les 19:15 UTC
Pronòstic vàlid del 20 a les 00 UTC al 20 a les 24 UTC
Vent 10 kt del Sud-Oest
Visibilitat 10 km o més
Núvols disperses a una alçada de 2600 ft

TAF: ZPPP 191915Z 2000/2024 22005MPS 9999 SCT026 TX21/2008Z TN11/2023Z

Observacions i pronòstics meteorològics de més de 4000 aeroports (METAR i TAF).

Les estacions disponibles són els punts grocs i vermells al mapa.

Posi el ratolí al punt desitjat per veure el nom de l'estació.

Feu clic per veure les observacions i els pronòstics meteorològics.

Per canviar el mapa: feu clic els botons verds amb una creu de color negre per apropar; al botó verd amb un guió per allunyar la imatge; o en les fletxes verdes per a mapes adjacents.


METAR-TAF: